createdAt,value
2022-10-19T00:05:46.235Z,7.20
2022-10-19T00:15:53.154Z,8.00
2022-10-19T00:26:00.815Z,9.20
2022-10-19T00:36:07.185Z,11.80
2022-10-19T00:46:15.977Z,10.90
2022-10-19T00:56:23.438Z,12.10
2022-10-19T01:06:30.717Z,13.10
2022-10-19T01:16:37.414Z,11.60
2022-10-19T01:27:12.064Z,18.60
2022-10-19T01:37:17.103Z,16.20
2022-10-19T01:47:31.589Z,13.90
2022-10-19T01:57:38.757Z,14.50
2022-10-19T02:07:51.418Z,13.60
2022-10-19T02:18:00.026Z,15.80
2022-10-19T02:28:07.628Z,23.50
2022-10-19T02:38:17.795Z,16.70
2022-10-19T02:48:28.500Z,21.90
2022-10-19T02:58:35.858Z,23.00
2022-10-19T03:08:42.934Z,25.00
2022-10-19T03:18:51.052Z,19.90
2022-10-19T03:28:58.381Z,17.30
2022-10-19T03:39:08.768Z,15.40
2022-10-19T03:49:15.843Z,17.10
2022-10-19T03:59:22.193Z,24.50
2022-10-19T04:09:29.238Z,21.60
2022-10-19T04:19:36.305Z,25.10
2022-10-19T04:29:43.332Z,17.10
2022-10-19T04:39:50.354Z,19.20
2022-10-19T04:49:57.456Z,23.40
2022-10-19T05:00:05.369Z,20.00
2022-10-19T05:10:12.458Z,18.80
2022-10-19T05:20:19.486Z,22.80
2022-10-19T05:30:26.443Z,16.20
2022-10-19T05:40:33.671Z,22.40
2022-10-19T05:50:40.788Z,22.60
2022-10-19T06:00:52.482Z,22.50
2022-10-19T06:11:09.013Z,19.00
2022-10-19T06:21:17.956Z,17.90
2022-10-19T06:31:25.314Z,17.80
2022-10-19T06:41:32.724Z,19.60
2022-10-19T06:51:40.844Z,26.10
2022-10-19T07:01:47.935Z,15.40
2022-10-19T07:11:55.165Z,21.00
2022-10-19T07:22:02.449Z,13.80
2022-10-19T07:32:08.993Z,16.00
2022-10-19T07:42:15.990Z,19.30
2022-10-19T07:52:23.381Z,19.40
2022-10-19T08:02:39.384Z,11.50
2022-10-19T08:12:55.939Z,10.80
2022-10-19T08:23:02.999Z,8.50
2022-10-19T08:33:12.674Z,10.60
2022-10-19T08:43:28.022Z,16.40
2022-10-19T08:53:33.760Z,11.20
2022-10-19T09:03:54.928Z,13.00
2022-10-19T09:14:06.420Z,8.90
2022-10-19T09:24:12.821Z,10.00
2022-10-19T09:34:21.626Z,10.70
2022-10-19T09:44:30.060Z,18.10
2022-10-19T09:54:37.689Z,6.40
2022-10-19T10:04:47.135Z,4.10
2022-10-19T10:14:54.179Z,7.80
2022-10-19T10:25:01.497Z,5.60
2022-10-19T10:35:07.176Z,9.00
2022-10-19T10:45:17.560Z,5.90
2022-10-19T10:55:24.152Z,2.70
2022-10-19T11:15:47.368Z,14.00
2022-10-19T11:25:54.971Z,11.50
2022-10-19T11:36:05.273Z,10.20
2022-10-19T11:46:09.662Z,7.50
2022-10-19T11:56:34.799Z,8.80
2022-10-19T12:06:45.231Z,8.00
2022-10-19T12:16:50.269Z,10.10
2022-10-19T12:26:59.319Z,5.60
2022-10-19T12:37:04.572Z,4.50
2022-10-19T12:47:13.859Z,6.70
2022-10-19T12:57:33.387Z,5.40
2022-10-19T13:07:40.677Z,9.00
2022-10-19T13:17:48.656Z,9.70
2022-10-19T13:27:55.362Z,7.80
2022-10-19T13:38:26.579Z,8.10
2022-10-19T13:48:31.587Z,8.00
2022-10-19T13:59:16.725Z,5.20
2022-10-19T14:09:58.583Z,12.00
2022-10-19T14:20:25.430Z,5.20
2022-10-19T14:30:36.401Z,6.10
2022-10-19T14:40:44.335Z,6.60
2022-10-19T15:01:03.183Z,7.20
2022-10-19T15:11:07.651Z,11.40
2022-10-19T15:21:17.032Z,7.70
2022-10-19T15:41:35.509Z,10.70
2022-10-19T15:51:48.529Z,8.50
2022-10-19T16:01:56.392Z,9.70
2022-10-19T16:12:03.565Z,9.70
2022-10-19T16:22:11.535Z,13.80
2022-10-19T16:42:29.705Z,11.70
2022-10-19T16:52:38.203Z,9.70
2022-10-19T17:02:48.212Z,11.50
2022-10-19T17:12:55.060Z,16.40
2022-10-19T17:23:01.427Z,24.40
2022-10-19T17:33:08.435Z,15.00
2022-10-19T17:43:15.878Z,12.60
2022-10-19T17:53:23.174Z,13.10
2022-10-19T18:03:33.003Z,11.20
2022-10-19T18:13:39.724Z,9.70
2022-10-19T18:23:47.171Z,12.50
2022-10-19T18:34:01.752Z,14.30
2022-10-19T18:44:10.544Z,14.30
2022-10-19T18:54:16.166Z,16.30
2022-10-19T19:04:22.390Z,15.80
2022-10-19T19:14:29.468Z,16.10
2022-10-19T19:24:36.665Z,29.80
2022-10-19T19:34:44.589Z,38.70
2022-10-19T19:44:52.104Z,40.80
2022-10-19T20:05:05.319Z,33.70
2022-10-19T20:15:15.049Z,24.20
2022-10-19T20:25:22.129Z,24.80
2022-10-19T20:35:29.737Z,36.90
2022-10-19T20:45:36.955Z,19.30
2022-10-19T20:55:43.943Z,22.60
2022-10-19T21:05:51.211Z,21.60
2022-10-19T21:15:58.129Z,14.10
2022-10-19T21:26:05.108Z,19.30
2022-10-19T21:36:14.103Z,16.50
2022-10-19T21:46:23.324Z,15.60
2022-10-19T21:56:30.950Z,14.20
2022-10-19T22:06:39.025Z,17.70
2022-10-19T22:16:46.083Z,17.60
2022-10-19T22:26:53.924Z,11.80
2022-10-19T22:37:00.831Z,16.60
2022-10-19T22:47:08.081Z,25.00
2022-10-19T22:57:15.086Z,26.70
2022-10-19T23:07:22.246Z,27.50
2022-10-19T23:17:29.197Z,21.30
2022-10-19T23:27:36.125Z,21.30
2022-10-19T23:37:43.444Z,21.90
2022-10-19T23:47:50.531Z,24.00
2022-10-19T23:57:57.556Z,33.30
